sensor_id;sensor_type;location;lat;lon;timestamp;P1;durP1;ratioP1;P2;durP2;ratioP2
39924;SDS011;25592;49.986;11.618;2024-02-16T00:01:41;140.63;;;51.10;;
39924;SDS011;25592;49.986;11.618;2024-02-16T00:04:26;139.10;;;50.27;;
39924;SDS011;25592;49.986;11.618;2024-02-16T00:07:12;141.57;;;54.23;;
39924;SDS011;25592;49.986;11.618;2024-02-16T00:09:58;138.40;;;48.57;;
39924;SDS011;25592;49.986;11.618;2024-02-16T00:12:43;140.67;;;50.60;;
39924;SDS011;25592;49.986;11.618;2024-02-16T00:15:28;140.53;;;51.67;;
39924;SDS011;25592;49.986;11.618;2024-02-16T00:18:14;140.13;;;51.83;;
39924;SDS011;25592;49.986;11.618;2024-02-16T00:20:59;139.03;;;50.50;;
39924;SDS011;25592;49.986;11.618;2024-02-16T00:23:46;138.43;;;49.93;;
39924;SDS011;25592;49.986;11.618;2024-02-16T00:26:31;138.60;;;49.53;;
39924;SDS011;25592;49.986;11.618;2024-02-16T00:29:17;139.47;;;50.93;;
39924;SDS011;25592;49.986;11.618;2024-02-16T00:32:04;138.37;;;49.80;;
39924;SDS011;25592;49.986;11.618;2024-02-16T00:34:51;139.20;;;49.03;;
39924;SDS011;25592;49.986;11.618;2024-02-16T00:37:38;139.47;;;50.13;;
39924;SDS011;25592;49.986;11.618;2024-02-16T00:40:23;140.00;;;50.47;;
39924;SDS011;25592;49.986;11.618;2024-02-16T00:43:09;138.97;;;50.47;;
39924;SDS011;25592;49.986;11.618;2024-02-16T00:45:55;140.07;;;51.13;;
39924;SDS011;25592;49.986;11.618;2024-02-16T00:48:41;137.83;;;49.37;;
39924;SDS011;25592;49.986;11.618;2024-02-16T00:51:26;138.73;;;50.00;;
39924;SDS011;25592;49.986;11.618;2024-02-16T00:54:12;139.53;;;50.43;;
39924;SDS011;25592;49.986;11.618;2024-02-16T00:56:57;138.83;;;50.83;;
39924;SDS011;25592;49.986;11.618;2024-02-16T00:59:47;139.57;;;50.23;;
39924;SDS011;25592;49.986;11.618;2024-02-16T01:02:33;140.20;;;50.30;;
39924;SDS011;25592;49.986;11.618;2024-02-16T01:05:18;141.13;;;52.17;;
39924;SDS011;25592;49.986;11.618;2024-02-16T01:08:04;143.40;;;56.23;;
39924;SDS011;25592;49.986;11.618;2024-02-16T01:10:50;139.80;;;50.70;;
39924;SDS011;25592;49.986;11.618;2024-02-16T01:13:35;140.43;;;50.30;;
39924;SDS011;25592;49.986;11.618;2024-02-16T01:16:21;139.53;;;49.83;;
39924;SDS011;25592;49.986;11.618;2024-02-16T01:19:06;138.93;;;48.57;;
39924;SDS011;25592;49.986;11.618;2024-02-16T01:21:52;139.80;;;50.40;;
39924;SDS011;25592;49.986;11.618;2024-02-16T01:24:42;140.30;;;50.63;;
39924;SDS011;25592;49.986;11.618;2024-02-16T01:27:28;139.67;;;49.37;;
39924;SDS011;25592;49.986;11.618;2024-02-16T01:30:13;142.23;;;53.83;;
39924;SDS011;25592;49.986;11.618;2024-02-16T01:33:00;142.27;;;50.10;;
39924;SDS011;25592;49.986;11.618;2024-02-16T01:35:45;141.17;;;49.10;;
39924;SDS011;25592;49.986;11.618;2024-02-16T01:38:31;141.50;;;49.57;;
39924;SDS011;25592;49.986;11.618;2024-02-16T01:41:16;142.40;;;51.23;;
39924;SDS011;25592;49.986;11.618;2024-02-16T01:44:02;142.47;;;50.93;;
39924;SDS011;25592;49.986;11.618;2024-02-16T01:46:47;141.10;;;50.30;;
39924;SDS011;25592;49.986;11.618;2024-02-16T01:49:33;141.70;;;51.27;;
39924;SDS011;25592;49.986;11.618;2024-02-16T01:52:19;141.57;;;50.60;;
39924;SDS011;25592;49.986;11.618;2024-02-16T01:55:04;141.80;;;49.80;;
39924;SDS011;25592;49.986;11.618;2024-02-16T01:57:53;142.37;;;50.43;;
39924;SDS011;25592;49.986;11.618;2024-02-16T02:00:40;142.27;;;49.87;;
39924;SDS011;25592;49.986;11.618;2024-02-16T02:03:28;142.00;;;50.03;;
39924;SDS011;25592;49.986;11.618;2024-02-16T02:06:13;144.50;;;51.53;;
39924;SDS011;25592;49.986;11.618;2024-02-16T02:08:59;143.53;;;50.90;;
39924;SDS011;25592;49.986;11.618;2024-02-16T02:11:44;141.23;;;48.60;;
39924;SDS011;25592;49.986;11.618;2024-02-16T02:14:30;143.00;;;50.33;;
39924;SDS011;25592;49.986;11.618;2024-02-16T02:17:16;144.43;;;52.03;;
39924;SDS011;25592;49.986;11.618;2024-02-16T02:20:02;145.37;;;51.10;;
39924;SDS011;25592;49.986;11.618;2024-02-16T02:22:49;142.43;;;49.90;;
39924;SDS011;25592;49.986;11.618;2024-02-16T02:25:34;141.40;;;50.50;;
39924;SDS011;25592;49.986;11.618;2024-02-16T02:28:21;142.67;;;51.57;;
39924;SDS011;25592;49.986;11.618;2024-02-16T02:31:08;141.70;;;50.77;;
39924;SDS011;25592;49.986;11.618;2024-02-16T02:33:54;139.67;;;49.63;;
39924;SDS011;25592;49.986;11.618;2024-02-16T02:36:39;140.90;;;50.57;;
39924;SDS011;25592;49.986;11.618;2024-02-16T02:39:25;141.83;;;51.37;;
39924;SDS011;25592;49.986;11.618;2024-02-16T02:42:10;141.30;;;50.50;;
39924;SDS011;25592;49.986;11.618;2024-02-16T02:44:56;142.47;;;50.60;;
39924;SDS011;25592;49.986;11.618;2024-02-16T02:47:41;143.97;;;51.50;;
39924;SDS011;25592;49.986;11.618;2024-02-16T02:50:26;141.20;;;49.50;;
39924;SDS011;25592;49.986;11.618;2024-02-16T02:53:12;140.77;;;49.90;;
39924;SDS011;25592;49.986;11.618;2024-02-16T02:55:57;143.33;;;51.40;;
39924;SDS011;25592;49.986;11.618;2024-02-16T02:58:42;141.33;;;49.43;;
39924;SDS011;25592;49.986;11.618;2024-02-16T03:01:28;144.23;;;52.60;;
39924;SDS011;25592;49.986;11.618;2024-02-16T03:04:13;143.20;;;51.83;;
39924;SDS011;25592;49.986;11.618;2024-02-16T03:06:59;142.47;;;51.80;;
39924;SDS011;25592;49.986;11.618;2024-02-16T03:09:44;140.90;;;49.53;;
39924;SDS011;25592;49.986;11.618;2024-02-16T03:12:31;142.10;;;50.73;;
39924;SDS011;25592;49.986;11.618;2024-02-16T03:15:17;141.83;;;50.73;;
39924;SDS011;25592;49.986;11.618;2024-02-16T03:18:03;143.83;;;53.97;;
39924;SDS011;25592;49.986;11.618;2024-02-16T03:20:49;142.90;;;51.33;;
39924;SDS011;25592;49.986;11.618;2024-02-16T03:23:35;140.93;;;49.13;;
39924;SDS011;25592;49.986;11.618;2024-02-16T03:26:22;141.47;;;50.60;;
39924;SDS011;25592;49.986;11.618;2024-02-16T03:29:08;142.50;;;51.27;;
39924;SDS011;25592;49.986;11.618;2024-02-16T03:31:53;140.83;;;50.23;;
39924;SDS011;25592;49.986;11.618;2024-02-16T03:34:39;140.97;;;49.77;;
39924;SDS011;25592;49.986;11.618;2024-02-16T03:37:24;140.17;;;48.53;;
39924;SDS011;25592;49.986;11.618;2024-02-16T03:40:10;141.90;;;51.00;;
39924;SDS011;25592;49.986;11.618;2024-02-16T03:42:57;140.80;;;50.07;;
39924;SDS011;25592;49.986;11.618;2024-02-16T03:45:43;140.20;;;49.67;;
39924;SDS011;25592;49.986;11.618;2024-02-16T03:48:28;141.13;;;50.47;;
39924;SDS011;25592;49.986;11.618;2024-02-16T03:51:15;141.23;;;51.23;;
39924;SDS011;25592;49.986;11.618;2024-02-16T03:54:01;139.70;;;48.27;;
39924;SDS011;25592;49.986;11.618;2024-02-16T03:56:47;140.07;;;49.47;;
39924;SDS011;25592;49.986;11.618;2024-02-16T03:59:33;139.00;;;48.23;;
39924;SDS011;25592;49.986;11.618;2024-02-16T04:02:18;141.40;;;51.63;;
39924;SDS011;25592;49.986;11.618;2024-02-16T04:05:04;140.37;;;49.77;;
39924;SDS011;25592;49.986;11.618;2024-02-16T04:07:49;141.20;;;50.77;;
39924;SDS011;25592;49.986;11.618;2024-02-16T04:10:34;141.27;;;50.93;;
39924;SDS011;25592;49.986;11.618;2024-02-16T04:13:20;141.97;;;53.20;;
39924;SDS011;25592;49.986;11.618;2024-02-16T04:16:05;139.73;;;49.70;;
39924;SDS011;25592;49.986;11.618;2024-02-16T04:18:51;141.43;;;50.53;;
39924;SDS011;25592;49.986;11.618;2024-02-16T04:21:37;139.97;;;50.13;;
39924;SDS011;25592;49.986;11.618;2024-02-16T04:24:22;140.63;;;51.13;;
39924;SDS011;25592;49.986;11.618;2024-02-16T04:27:08;140.10;;;50.73;;
39924;SDS011;25592;49.986;11.618;2024-02-16T04:29:53;139.43;;;49.73;;
39924;SDS011;25592;49.986;11.618;2024-02-16T04:32:39;140.57;;;50.93;;
39924;SDS011;25592;49.986;11.618;2024-02-16T04:35:24;139.80;;;49.80;;
39924;SDS011;25592;49.986;11.618;2024-02-16T04:38:10;143.27;;;57.33;;
39924;SDS011;25592;49.986;11.618;2024-02-16T04:40:55;139.80;;;49.90;;
39924;SDS011;25592;49.986;11.618;2024-02-16T04:43:41;138.73;;;47.63;;
39924;SDS011;25592;49.986;11.618;2024-02-16T04:46:26;141.40;;;50.57;;
39924;SDS011;25592;49.986;11.618;2024-02-16T04:49:12;139.93;;;49.60;;
39924;SDS011;25592;49.986;11.618;2024-02-16T04:51:58;140.10;;;49.77;;
39924;SDS011;25592;49.986;11.618;2024-02-16T04:54:44;139.53;;;50.27;;
39924;SDS011;25592;49.986;11.618;2024-02-16T04:57:29;140.13;;;51.13;;
39924;SDS011;25592;49.986;11.618;2024-02-16T05:00:14;141.53;;;53.10;;
39924;SDS011;25592;49.986;11.618;2024-02-16T05:03:00;140.87;;;50.43;;
39924;SDS011;25592;49.986;11.618;2024-02-16T05:05:46;139.70;;;49.77;;
39924;SDS011;25592;49.986;11.618;2024-02-16T05:08:31;140.17;;;49.97;;
39924;SDS011;25592;49.986;11.618;2024-02-16T05:11:16;139.97;;;48.97;;
39924;SDS011;25592;49.986;11.618;2024-02-16T05:14:02;142.30;;;49.97;;
39924;SDS011;25592;49.986;11.618;2024-02-16T05:16:47;141.93;;;49.07;;
39924;SDS011;25592;49.986;11.618;2024-02-16T05:19:34;141.27;;;50.40;;
39924;SDS011;25592;49.986;11.618;2024-02-16T05:22:22;141.60;;;50.80;;
39924;SDS011;25592;49.986;11.618;2024-02-16T05:25:08;140.13;;;49.40;;
39924;SDS011;25592;49.986;11.618;2024-02-16T05:27:55;141.33;;;50.67;;
39924;SDS011;25592;49.986;11.618;2024-02-16T05:30:40;139.20;;;49.00;;
39924;SDS011;25592;49.986;11.618;2024-02-16T05:33:26;140.43;;;50.00;;
39924;SDS011;25592;49.986;11.618;2024-02-16T05:36:12;139.60;;;49.43;;
39924;SDS011;25592;49.986;11.618;2024-02-16T05:38:57;138.93;;;47.63;;
39924;SDS011;25592;49.986;11.618;2024-02-16T05:41:54;141.53;;;49.27;;
39924;SDS011;25592;49.986;11.618;2024-02-16T05:44:40;141.40;;;49.53;;
39924;SDS011;25592;49.986;11.618;2024-02-16T05:47:25;142.37;;;50.27;;
39924;SDS011;25592;49.986;11.618;2024-02-16T05:50:13;140.67;;;49.90;;
39924;SDS011;25592;49.986;11.618;2024-02-16T05:53:00;139.73;;;50.60;;
39924;SDS011;25592;49.986;11.618;2024-02-16T05:55:45;139.87;;;50.00;;
39924;SDS011;25592;49.986;11.618;2024-02-16T05:58:32;142.07;;;51.23;;
39924;SDS011;25592;49.986;11.618;2024-02-16T06:01:18;140.70;;;50.40;;
39924;SDS011;25592;49.986;11.618;2024-02-16T06:04:04;140.40;;;50.20;;
39924;SDS011;25592;49.986;11.618;2024-02-16T06:06:49;141.90;;;51.10;;
39924;SDS011;25592;49.986;11.618;2024-02-16T06:09:35;142.37;;;51.23;;
39924;SDS011;25592;49.986;11.618;2024-02-16T06:12:22;143.13;;;52.43;;
39924;SDS011;25592;49.986;11.618;2024-02-16T06:15:07;140.47;;;49.63;;
39924;SDS011;25592;49.986;11.618;2024-02-16T06:17:53;142.20;;;51.10;;
39924;SDS011;25592;49.986;11.618;2024-02-16T06:20:39;142.67;;;52.43;;
39924;SDS011;25592;49.986;11.618;2024-02-16T06:23:24;141.77;;;49.47;;
39924;SDS011;25592;49.986;11.618;2024-02-16T06:26:10;142.23;;;50.47;;
39924;SDS011;25592;49.986;11.618;2024-02-16T06:28:56;144.23;;;49.30;;
39924;SDS011;25592;49.986;11.618;2024-02-16T06:31:43;143.77;;;51.10;;
39924;SDS011;25592;49.986;11.618;2024-02-16T06:34:29;143.23;;;48.97;;
39924;SDS011;25592;49.986;11.618;2024-02-16T06:37:16;143.93;;;50.20;;
39924;SDS011;25592;49.986;11.618;2024-02-16T06:40:01;143.20;;;49.57;;
39924;SDS011;25592;49.986;11.618;2024-02-16T06:42:47;144.70;;;50.13;;
39924;SDS011;25592;49.986;11.618;2024-02-16T06:45:32;143.17;;;51.17;;
39924;SDS011;25592;49.986;11.618;2024-02-16T06:48:18;144.33;;;53.27;;
39924;SDS011;25592;49.986;11.618;2024-02-16T06:51:03;142.03;;;50.63;;
39924;SDS011;25592;49.986;11.618;2024-02-16T06:53:52;143.20;;;51.00;;
39924;SDS011;25592;49.986;11.618;2024-02-16T06:56:37;143.27;;;50.67;;
39924;SDS011;25592;49.986;11.618;2024-02-16T06:59:23;144.07;;;51.43;;
39924;SDS011;25592;49.986;11.618;2024-02-16T07:02:08;141.27;;;49.67;;
39924;SDS011;25592;49.986;11.618;2024-02-16T07:04:55;141.60;;;50.33;;
39924;SDS011;25592;49.986;11.618;2024-02-16T07:07:41;141.23;;;50.00;;
39924;SDS011;25592;49.986;11.618;2024-02-16T07:10:26;140.77;;;49.87;;
39924;SDS011;25592;49.986;11.618;2024-02-16T07:13:12;141.90;;;50.63;;
39924;SDS011;25592;49.986;11.618;2024-02-16T07:15:58;142.33;;;50.00;;
39924;SDS011;25592;49.986;11.618;2024-02-16T07:18:43;143.17;;;50.97;;
39924;SDS011;25592;49.986;11.618;2024-02-16T07:21:29;142.43;;;51.10;;
39924;SDS011;25592;49.986;11.618;2024-02-16T07:24:14;143.80;;;53.83;;
39924;SDS011;25592;49.986;11.618;2024-02-16T07:27:00;142.17;;;51.40;;
39924;SDS011;25592;49.986;11.618;2024-02-16T07:29:46;140.97;;;49.53;;
39924;SDS011;25592;49.986;11.618;2024-02-16T07:32:32;143.70;;;54.10;;
39924;SDS011;25592;49.986;11.618;2024-02-16T07:35:21;141.73;;;50.87;;
39924;SDS011;25592;49.986;11.618;2024-02-16T07:38:09;144.83;;;56.80;;
39924;SDS011;25592;49.986;11.618;2024-02-16T07:40:54;141.97;;;52.13;;
39924;SDS011;25592;49.986;11.618;2024-02-16T07:43:40;141.23;;;50.83;;
39924;SDS011;25592;49.986;11.618;2024-02-16T07:46:25;141.83;;;49.60;;
39924;SDS011;25592;49.986;11.618;2024-02-16T07:49:11;142.60;;;50.33;;
39924;SDS011;25592;49.986;11.618;2024-02-16T07:51:56;143.40;;;51.57;;
39924;SDS011;25592;49.986;11.618;2024-02-16T07:54:42;143.43;;;51.13;;
39924;SDS011;25592;49.986;11.618;2024-02-16T07:57:27;144.03;;;51.13;;
39924;SDS011;25592;49.986;11.618;2024-02-16T08:00:13;144.60;;;55.30;;
39924;SDS011;25592;49.986;11.618;2024-02-16T08:03:01;143.13;;;49.80;;
39924;SDS011;25592;49.986;11.618;2024-02-16T08:05:47;145.03;;;50.33;;
39924;SDS011;25592;49.986;11.618;2024-02-16T08:08:32;146.97;;;52.23;;
39924;SDS011;25592;49.986;11.618;2024-02-16T08:11:18;148.33;;;52.03;;
39924;SDS011;25592;49.986;11.618;2024-02-16T08:14:04;146.73;;;50.13;;
39924;SDS011;25592;49.986;11.618;2024-02-16T08:16:50;148.77;;;51.73;;
39924;SDS011;25592;49.986;11.618;2024-02-16T08:19:51;147.40;;;50.00;;
39924;SDS011;25592;49.986;11.618;2024-02-16T08:22:38;147.83;;;51.37;;
39924;SDS011;25592;49.986;11.618;2024-02-16T08:25:24;147.17;;;51.33;;
39924;SDS011;25592;49.986;11.618;2024-02-16T08:28:09;153.00;;;58.47;;
39924;SDS011;25592;49.986;11.618;2024-02-16T08:30:55;149.00;;;51.60;;
39924;SDS011;25592;49.986;11.618;2024-02-16T08:33:40;150.90;;;52.63;;
39924;SDS011;25592;49.986;11.618;2024-02-16T08:36:27;154.17;;;50.53;;
39924;SDS011;25592;49.986;11.618;2024-02-16T08:39:15;149.57;;;50.57;;
39924;SDS011;25592;49.986;11.618;2024-02-16T08:42:04;149.90;;;51.43;;
39924;SDS011;25592;49.986;11.618;2024-02-16T08:44:50;149.13;;;49.40;;
39924;SDS011;25592;49.986;11.618;2024-02-16T08:47:35;149.90;;;52.17;;
39924;SDS011;25592;49.986;11.618;2024-02-16T08:50:21;150.00;;;52.73;;
39924;SDS011;25592;49.986;11.618;2024-02-16T08:53:07;143.27;;;50.63;;
39924;SDS011;25592;49.986;11.618;2024-02-16T08:55:55;143.93;;;52.10;;
39924;SDS011;25592;49.986;11.618;2024-02-16T08:58:41;143.90;;;52.43;;
39924;SDS011;25592;49.986;11.618;2024-02-16T09:01:33;142.90;;;50.13;;
39924;SDS011;25592;49.986;11.618;2024-02-16T09:04:20;144.63;;;51.10;;
39924;SDS011;25592;49.986;11.618;2024-02-16T09:07:05;145.57;;;51.83;;
39924;SDS011;25592;49.986;11.618;2024-02-16T09:09:51;144.83;;;50.93;;
39924;SDS011;25592;49.986;11.618;2024-02-16T09:12:36;148.57;;;53.07;;
39924;SDS011;25592;49.986;11.618;2024-02-16T09:15:22;143.93;;;51.13;;
39924;SDS011;25592;49.986;11.618;2024-02-16T09:18:07;145.90;;;52.47;;
39924;SDS011;25592;49.986;11.618;2024-02-16T09:20:53;144.07;;;49.73;;
39924;SDS011;25592;49.986;11.618;2024-02-16T09:23:39;145.00;;;51.40;;
39924;SDS011;25592;49.986;11.618;2024-02-16T09:26:25;143.53;;;49.57;;
39924;SDS011;25592;49.986;11.618;2024-02-16T09:29:15;145.17;;;51.50;;
39924;SDS011;25592;49.986;11.618;2024-02-16T09:32:00;146.43;;;51.53;;
39924;SDS011;25592;49.986;11.618;2024-02-16T09:34:46;146.63;;;50.50;;
39924;SDS011;25592;49.986;11.618;2024-02-16T09:37:31;146.40;;;51.57;;
39924;SDS011;25592;49.986;11.618;2024-02-16T09:40:17;146.60;;;52.20;;
39924;SDS011;25592;49.986;11.618;2024-02-16T09:43:05;145.13;;;50.27;;
39924;SDS011;25592;49.986;11.618;2024-02-16T09:45:54;147.60;;;51.37;;
39924;SDS011;25592;49.986;11.618;2024-02-16T09:48:44;145.50;;;49.20;;
39924;SDS011;25592;49.986;11.618;2024-02-16T09:51:35;146.63;;;51.03;;
39924;SDS011;25592;49.986;11.618;2024-02-16T09:54:21;146.70;;;50.47;;
39924;SDS011;25592;49.986;11.618;2024-02-16T09:57:08;147.00;;;51.97;;
39924;SDS011;25592;49.986;11.618;2024-02-16T09:59:53;148.13;;;49.57;;
39924;SDS011;25592;49.986;11.618;2024-02-16T10:02:40;147.97;;;52.20;;
39924;SDS011;25592;49.986;11.618;2024-02-16T10:05:27;145.20;;;50.83;;
39924;SDS011;25592;49.986;11.618;2024-02-16T10:08:15;151.47;;;59.83;;
39924;SDS011;25592;49.986;11.618;2024-02-16T10:11:04;146.17;;;50.87;;
39924;SDS011;25592;49.986;11.618;2024-02-16T10:13:57;145.87;;;51.00;;
39924;SDS011;25592;49.986;11.618;2024-02-16T10:16:47;144.80;;;50.93;;
39924;SDS011;25592;49.986;11.618;2024-02-16T10:19:33;145.80;;;52.07;;
39924;SDS011;25592;49.986;11.618;2024-02-16T10:22:27;145.07;;;51.13;;
39924;SDS011;25592;49.986;11.618;2024-02-16T10:25:13;145.10;;;49.73;;
39924;SDS011;25592;49.986;11.618;2024-02-16T10:27:59;152.17;;;54.97;;
39924;SDS011;25592;49.986;11.618;2024-02-16T10:30:57;147.50;;;50.87;;
39924;SDS011;25592;49.986;11.618;2024-02-16T10:33:46;146.23;;;51.00;;
39924;SDS011;25592;49.986;11.618;2024-02-16T10:36:35;149.17;;;54.37;;
39924;SDS011;25592;49.986;11.618;2024-02-16T10:39:22;148.07;;;52.30;;
39924;SDS011;25592;49.986;11.618;2024-02-16T10:42:09;147.03;;;51.60;;
39924;SDS011;25592;49.986;11.618;2024-02-16T10:44:56;147.63;;;51.37;;
39924;SDS011;25592;49.986;11.618;2024-02-16T10:47:42;149.53;;;53.50;;
39924;SDS011;25592;49.986;11.618;2024-02-16T10:50:28;148.60;;;51.50;;
39924;SDS011;25592;49.986;11.618;2024-02-16T10:53:15;147.83;;;51.97;;
39924;SDS011;25592;49.986;11.618;2024-02-16T10:56:06;183.55;;;59.35;;
39924;SDS011;25592;49.986;11.618;2024-02-16T10:58:52;147.13;;;50.50;;
39924;SDS011;25592;49.986;11.618;2024-02-16T11:01:38;147.77;;;52.43;;
39924;SDS011;25592;49.986;11.618;2024-02-16T11:04:23;148.53;;;51.87;;
39924;SDS011;25592;49.986;11.618;2024-02-16T11:07:16;148.20;;;51.97;;
39924;SDS011;25592;49.986;11.618;2024-02-16T11:10:03;146.17;;;49.87;;
39924;SDS011;25592;49.986;11.618;2024-02-16T11:12:49;147.77;;;52.03;;
39924;SDS011;25592;49.986;11.618;2024-02-16T11:15:35;146.00;;;50.73;;
39924;SDS011;25592;49.986;11.618;2024-02-16T11:18:22;147.47;;;53.37;;
39924;SDS011;25592;49.986;11.618;2024-02-16T11:21:07;145.90;;;50.27;;
39924;SDS011;25592;49.986;11.618;2024-02-16T11:24:03;145.67;;;50.93;;
39924;SDS011;25592;49.986;11.618;2024-02-16T11:26:52;146.20;;;50.63;;
39924;SDS011;25592;49.986;11.618;2024-02-16T11:29:40;147.57;;;52.73;;
39924;SDS011;25592;49.986;11.618;2024-02-16T11:32:26;147.17;;;50.80;;
39924;SDS011;25592;49.986;11.618;2024-02-16T11:35:11;147.30;;;51.80;;
39924;SDS011;25592;49.986;11.618;2024-02-16T11:37:57;150.43;;;54.23;;
39924;SDS011;25592;49.986;11.618;2024-02-16T11:40:52;147.83;;;52.67;;
39924;SDS011;25592;49.986;11.618;2024-02-16T11:43:38;147.40;;;51.53;;
39924;SDS011;25592;49.986;11.618;2024-02-16T11:46:23;147.27;;;50.80;;
39924;SDS011;25592;49.986;11.618;2024-02-16T11:49:09;147.77;;;50.63;;
39924;SDS011;25592;49.986;11.618;2024-02-16T11:51:56;148.67;;;51.13;;
39924;SDS011;25592;49.986;11.618;2024-02-16T11:54:43;151.17;;;52.03;;
39924;SDS011;25592;49.986;11.618;2024-02-16T11:57:29;152.17;;;54.03;;
39924;SDS011;25592;49.986;11.618;2024-02-16T12:00:15;152.07;;;55.23;;
39924;SDS011;25592;49.986;11.618;2024-02-16T12:03:01;148.83;;;51.00;;
39924;SDS011;25592;49.986;11.618;2024-02-16T12:05:56;150.87;;;52.30;;
39924;SDS011;25592;49.986;11.618;2024-02-16T12:08:43;150.80;;;51.87;;
39924;SDS011;25592;49.986;11.618;2024-02-16T12:11:29;151.47;;;53.30;;
39924;SDS011;25592;49.986;11.618;2024-02-16T12:14:15;151.57;;;51.27;;
39924;SDS011;25592;49.986;11.618;2024-02-16T12:17:02;152.67;;;53.20;;
39924;SDS011;25592;49.986;11.618;2024-02-16T12:19:49;152.77;;;51.37;;
39924;SDS011;25592;49.986;11.618;2024-02-16T12:22:37;151.43;;;51.97;;
39924;SDS011;25592;49.986;11.618;2024-02-16T12:25:22;153.83;;;52.30;;
39924;SDS011;25592;49.986;11.618;2024-02-16T12:28:08;157.10;;;56.80;;
39924;SDS011;25592;49.986;11.618;2024-02-16T12:30:54;154.07;;;52.30;;
39924;SDS011;25592;49.986;11.618;2024-02-16T12:33:41;154.60;;;53.63;;
39924;SDS011;25592;49.986;11.618;2024-02-16T12:36:27;152.87;;;51.40;;
39924;SDS011;25592;49.986;11.618;2024-02-16T12:39:12;154.53;;;52.67;;
39924;SDS011;25592;49.986;11.618;2024-02-16T12:41:59;154.80;;;51.97;;
39924;SDS011;25592;49.986;11.618;2024-02-16T12:44:45;156.47;;;51.73;;
39924;SDS011;25592;49.986;11.618;2024-02-16T12:47:30;155.20;;;51.37;;
39924;SDS011;25592;49.986;11.618;2024-02-16T12:50:16;155.47;;;50.40;;
39924;SDS011;25592;49.986;11.618;2024-02-16T12:53:02;156.43;;;53.40;;
39924;SDS011;25592;49.986;11.618;2024-02-16T12:55:48;155.27;;;52.03;;
39924;SDS011;25592;49.986;11.618;2024-02-16T12:58:35;154.07;;;51.73;;
39924;SDS011;25592;49.986;11.618;2024-02-16T13:01:21;155.07;;;50.40;;
39924;SDS011;25592;49.986;11.618;2024-02-16T13:04:10;154.47;;;52.10;;
39924;SDS011;25592;49.986;11.618;2024-02-16T13:06:57;155.63;;;52.10;;
39924;SDS011;25592;49.986;11.618;2024-02-16T13:09:44;157.23;;;53.03;;
39924;SDS011;25592;49.986;11.618;2024-02-16T13:12:30;157.97;;;53.30;;
39924;SDS011;25592;49.986;11.618;2024-02-16T13:15:16;155.27;;;51.10;;
39924;SDS011;25592;49.986;11.618;2024-02-16T13:18:13;160.63;;;57.07;;
39924;SDS011;25592;49.986;11.618;2024-02-16T13:21:02;160.13;;;51.13;;
39924;SDS011;25592;49.986;11.618;2024-02-16T13:23:47;158.23;;;51.43;;
39924;SDS011;25592;49.986;11.618;2024-02-16T13:26:33;155.13;;;50.93;;
39924;SDS011;25592;49.986;11.618;2024-02-16T13:29:18;155.10;;;51.83;;
39924;SDS011;25592;49.986;11.618;2024-02-16T13:32:04;152.77;;;50.67;;
39924;SDS011;25592;49.986;11.618;2024-02-16T13:34:49;152.70;;;51.60;;
39924;SDS011;25592;49.986;11.618;2024-02-16T13:37:35;153.70;;;53.30;;
39924;SDS011;25592;49.986;11.618;2024-02-16T13:40:22;152.53;;;51.37;;
39924;SDS011;25592;49.986;11.618;2024-02-16T13:43:08;151.33;;;50.03;;
39924;SDS011;25592;49.986;11.618;2024-02-16T13:45:54;151.87;;;51.10;;
39924;SDS011;25592;49.986;11.618;2024-02-16T13:48:42;151.77;;;52.63;;
39924;SDS011;25592;49.986;11.618;2024-02-16T13:51:27;150.53;;;50.77;;
39924;SDS011;25592;49.986;11.618;2024-02-16T13:54:13;151.57;;;51.60;;
39924;SDS011;25592;49.986;11.618;2024-02-16T13:56:58;152.60;;;53.17;;
39924;SDS011;25592;49.986;11.618;2024-02-16T13:59:44;152.50;;;52.33;;
39924;SDS011;25592;49.986;11.618;2024-02-16T14:02:30;151.47;;;51.77;;
39924;SDS011;25592;49.986;11.618;2024-02-16T14:05:16;151.87;;;52.73;;
39924;SDS011;25592;49.986;11.618;2024-02-16T14:08:01;152.37;;;52.97;;
39924;SDS011;25592;49.986;11.618;2024-02-16T14:10:52;152.60;;;53.30;;
39924;SDS011;25592;49.986;11.618;2024-02-16T14:13:37;156.60;;;54.53;;
39924;SDS011;25592;49.986;11.618;2024-02-16T14:16:25;152.07;;;54.47;;
39924;SDS011;25592;49.986;11.618;2024-02-16T14:19:12;152.27;;;52.43;;
39924;SDS011;25592;49.986;11.618;2024-02-16T14:22:08;152.40;;;51.90;;
39924;SDS011;25592;49.986;11.618;2024-02-16T14:25:00;152.90;;;51.70;;
39924;SDS011;25592;49.986;11.618;2024-02-16T14:27:57;152.00;;;52.87;;
39924;SDS011;25592;49.986;11.618;2024-02-16T14:30:47;153.47;;;52.77;;
39924;SDS011;25592;49.986;11.618;2024-02-16T14:33:46;152.83;;;51.93;;
39924;SDS011;25592;49.986;11.618;2024-02-16T14:36:35;154.00;;;52.87;;
39924;SDS011;25592;49.986;11.618;2024-02-16T14:39:26;153.40;;;52.93;;
39924;SDS011;25592;49.986;11.618;2024-02-16T14:42:27;153.27;;;52.33;;
39924;SDS011;25592;49.986;11.618;2024-02-16T14:45:19;154.07;;;52.60;;
39924;SDS011;25592;49.986;11.618;2024-02-16T14:48:20;158.30;;;59.23;;
39924;SDS011;25592;49.986;11.618;2024-02-16T14:51:20;153.87;;;53.13;;
39924;SDS011;25592;49.986;11.618;2024-02-16T14:54:12;154.13;;;53.13;;
39924;SDS011;25592;49.986;11.618;2024-02-16T14:57:19;154.83;;;52.23;;
39924;SDS011;25592;49.986;11.618;2024-02-16T15:00:08;157.00;;;56.07;;
39924;SDS011;25592;49.986;11.618;2024-02-16T15:02:57;153.20;;;53.17;;
39924;SDS011;25592;49.986;11.618;2024-02-16T15:05:54;153.73;;;53.13;;
39924;SDS011;25592;49.986;11.618;2024-02-16T15:08:46;149.95;;;51.75;;
39924;SDS011;25592;49.986;11.618;2024-02-16T15:11:35;153.90;;;52.73;;
39924;SDS011;25592;49.986;11.618;2024-02-16T15:14:25;151.67;;;50.60;;
39924;SDS011;25592;49.986;11.618;2024-02-16T15:17:12;152.60;;;51.90;;
39924;SDS011;25592;49.986;11.618;2024-02-16T15:20:00;152.33;;;52.30;;
39924;SDS011;25592;49.986;11.618;2024-02-16T15:23:02;152.87;;;53.17;;
39924;SDS011;25592;49.986;11.618;2024-02-16T15:25:59;152.40;;;53.07;;
39924;SDS011;25592;49.986;11.618;2024-02-16T15:29:04;192.77;;;63.77;;
39924;SDS011;25592;49.986;11.618;2024-02-16T15:31:54;149.47;;;49.07;;
39924;SDS011;25592;49.986;11.618;2024-02-16T15:34:53;150.90;;;50.87;;
39924;SDS011;25592;49.986;11.618;2024-02-16T15:37:50;155.10;;;58.00;;
39924;SDS011;25592;49.986;11.618;2024-02-16T15:40:44;152.70;;;52.17;;
39924;SDS011;25592;49.986;11.618;2024-02-16T15:43:34;151.70;;;50.40;;
39924;SDS011;25592;49.986;11.618;2024-02-16T15:46:23;151.40;;;50.87;;
39924;SDS011;25592;49.986;11.618;2024-02-16T15:49:14;152.33;;;51.27;;